Time;durP1;ratioP1;P1;durP2;ratioP2;P2;SDS_P1;SDS_P2;PMS_P1;PMS_P2;Temp;Humidity;BMP_temperature;BMP_pressure;BME280_temperature;BME280_humidity;BME280_pressure;Samples;Min_cycle;Max_cycle;Signal;HPM_P1;HPM_P2
2022/03/08 00:01:34;;;;;;;9.85;5.93;;;;;;;-1.50;65.56;102084.56;7396811;19;20418;-67
2022/03/08 00:04:06;;;;;;;9.05;5.78;;;;;;;-1.55;65.56;102088.59;7394597;19;20369;-67
2022/03/08 00:06:34;;;;;;;8.93;5.28;;;;;;;-1.58;65.79;102086.75;7394500;19;20500;-68
2022/03/08 00:09:02;;;;;;;13.93;7.40;;;;;;;-1.62;65.83;102087.38;7396340;19;20018;-68
2022/03/08 00:11:30;;;;;;;11.10;6.40;;;;;;;-1.65;65.94;102084.69;7396646;19;20483;-68
2022/03/08 00:13:58;;;;;;;9.55;5.93;;;;;;;-1.70;65.87;102078.41;7394137;19;20010;-70
2022/03/08 00:16:27;;;;;;;9.00;5.90;;;;;;;-1.73;66.45;102079.16;7396282;19;20031;-67
2022/03/08 00:18:55;;;;;;;10.38;6.03;;;;;;;-1.77;66.16;102084.91;7393671;19;20018;-67
2022/03/08 00:21:26;;;;;;;8.77;5.93;;;;;;;-1.79;66.58;102089.13;7394554;19;20022;-67
2022/03/08 00:23:55;;;;;;;8.15;5.75;;;;;;;-1.84;66.23;102080.28;7394261;19;20015;-67
2022/03/08 00:26:24;;;;;;;10.82;5.82;;;;;;;-1.88;66.41;102079.25;7394984;19;20018;-67
2022/03/08 00:28:52;;;;;;;10.02;5.82;;;;;;;-1.91;66.72;102073.06;7394232;19;20030;-68
2022/03/08 00:31:20;;;;;;;8.65;5.20;;;;;;;-1.95;66.84;102063.44;7394904;19;20014;-67
2022/03/08 00:33:48;;;;;;;9.50;6.15;;;;;;;-1.99;66.67;102059.81;7394482;19;20035;-67
2022/03/08 00:36:16;;;;;;;9.85;5.95;;;;;;;-2.03;66.69;102061.34;7394013;19;20015;-67
2022/03/08 00:38:47;;;;;;;8.40;5.50;;;;;;;-2.06;67.00;102061.19;7393533;19;20373;-67
2022/03/08 00:41:16;;;;;;;8.60;6.32;;;;;;;-2.08;66.77;102059.34;7395915;19;20018;-67
2022/03/08 00:43:44;;;;;;;9.20;6.10;;;;;;;-2.11;66.93;102066.91;7393619;19;20513;-67
2022/03/08 00:46:12;;;;;;;9.85;6.65;;;;;;;-2.16;67.11;102057.28;7394758;19;20018;-67
2022/03/08 00:48:40;;;;;;;7.68;6.07;;;;;;;-2.19;67.21;102059.66;7395383;19;20019;-67
2022/03/08 00:51:08;;;;;;;7.55;5.45;;;;;;;-2.23;67.17;102060.31;7395192;19;20018;-67
2022/03/08 00:53:37;;;;;;;8.27;5.72;;;;;;;-2.26;67.09;102057.59;7393246;19;20022;-67
2022/03/08 00:56:07;;;;;;;9.98;6.00;;;;;;;-2.28;67.28;102059.19;7395715;19;20027;-67
2022/03/08 00:58:36;;;;;;;8.40;6.03;;;;;;;-2.32;67.54;102053.00;7395399;19;20035;-67
2022/03/08 01:01:05;;;;;;;8.10;5.88;;;;;;;-2.35;67.63;102051.97;7394849;19;20078;-67
2022/03/08 01:03:33;;;;;;;11.23;6.45;;;;;;;-2.39;67.80;102063.81;7393330;19;20015;-67
2022/03/08 01:06:01;;;;;;;6.72;5.70;;;;;;;-2.41;67.90;102056.78;7392448;19;20394;-72
2022/03/08 01:08:30;;;;;;;9.32;5.85;;;;;;;-2.45;67.83;102060.91;7395625;19;20014;-71
2022/03/08 01:10:58;;;;;;;9.48;6.22;;;;;;;-2.48;68.05;102069.34;7395550;19;20019;-66
2022/03/08 01:13:28;;;;;;;10.38;6.25;;;;;;;-2.50;68.46;102067.50;7392975;19;20010;-67
2022/03/08 01:15:57;;;;;;;9.50;6.13;;;;;;;-2.53;68.35;102065.59;7393054;19;20484;-67
2022/03/08 01:18:25;;;;;;;9.15;6.00;;;;;;;-2.55;68.55;102066.34;7395399;19;20030;-66
2022/03/08 01:20:53;;;;;;;8.45;6.07;;;;;;;-2.57;68.72;102058.56;7394566;19;20014;-67
2022/03/08 01:23:21;;;;;;;9.85;6.43;;;;;;;-2.59;69.01;102057.59;7392907;19;20022;-66
2022/03/08 01:25:50;;;;;;;10.65;5.95;;;;;;;-2.59;68.83;102057.59;7394128;19;20018;-67
2022/03/08 01:28:18;;;;;;;13.13;7.10;;;;;;;-2.60;68.89;102058.41;7392452;19;20110;-67
2022/03/08 01:30:49;;;;;;;10.07;6.68;;;;;;;-2.60;68.90;102063.53;7395784;19;20030;-67
2022/03/08 01:33:17;;;;;;;9.57;6.35;;;;;;;-2.61;68.80;102061.75;7400023;19;20022;-67
2022/03/08 01:35:45;;;;;;;12.43;6.70;;;;;;;-2.63;69.05;102055.66;7401750;19;20049;-67
2022/03/08 01:38:14;;;;;;;13.38;6.97;;;;;;;-2.65;69.30;102059.84;7401595;19;20010;-67
2022/03/08 01:40:42;;;;;;;12.20;7.63;;;;;;;-2.67;69.44;102056.28;7401646;19;20027;-67
2022/03/08 01:43:10;;;;;;;9.93;6.43;;;;;;;-2.68;69.35;102057.09;7399721;19;20037;-67
2022/03/08 01:45:38;;;;;;;9.20;6.45;;;;;;;-2.71;69.50;102044.97;7401454;19;20018;-67
2022/03/08 01:48:09;;;;;;;10.40;6.80;;;;;;;-2.71;69.47;102046.66;7401297;19;20022;-67
2022/03/08 01:50:37;;;;;;;10.38;6.60;;;;;;;-2.72;69.43;102044.88;7398722;19;20022;-67
2022/03/08 01:53:06;;;;;;;10.52;6.97;;;;;;;-2.74;69.47;102054.19;7399091;19;20482;-67
2022/03/08 01:55:34;;;;;;;11.00;6.20;;;;;;;-2.76;69.71;102050.69;7400668;19;20468;-67
2022/03/08 01:58:03;;;;;;;9.73;7.63;;;;;;;-2.80;69.82;102037.66;7401032;19;20018;-67
2022/03/08 02:00:34;;;;;;;9.77;6.40;;;;;;;-2.83;69.89;102028.88;7400964;19;20035;-67
2022/03/08 02:03:03;;;;;;;9.20;6.07;;;;;;;-2.85;70.00;102041.66;7399498;19;20045;-66
2022/03/08 02:05:34;;;;;;;10.90;6.18;;;;;;;-2.87;70.04;102038.16;7398286;19;20018;-67
2022/03/08 02:08:02;;;;;;;10.38;6.40;;;;;;;-2.91;69.96;102036.19;7398691;19;20015;-66
2022/03/08 02:10:30;;;;;;;9.45;6.28;;;;;;;-2.94;70.06;102030.91;7400658;19;20022;-67
2022/03/08 02:12:58;;;;;;;17.00;7.05;;;;;;;-2.97;70.01;102036.75;7399920;19;20027;-66
2022/03/08 02:15:29;;;;;;;10.60;6.88;;;;;;;-3.00;70.18;102031.44;7401015;19;20018;-66
2022/03/08 02:17:58;;;;;;;8.65;6.20;;;;;;;-3.02;70.22;102034.72;7400176;19;20522;-66
2022/03/08 02:20:27;;;;;;;8.60;6.45;;;;;;;-3.07;70.14;102037.06;7400256;19;20381;-67
2022/03/08 02:23:00;;;;;;;7.95;6.38;;;;;;;-3.08;70.34;102039.50;7398802;19;20015;-66
2022/03/08 02:25:28;;;;;;;10.68;6.47;;;;;;;-3.13;70.25;102042.72;7399794;19;20430;-67
2022/03/08 02:27:57;;;;;;;10.52;6.35;;;;;;;-3.16;70.37;102032.31;7397560;19;20483;-66
2022/03/08 02:30:27;;;;;;;8.43;5.85;;;;;;;-3.18;70.34;102031.31;7400101;19;20014;-67
2022/03/08 02:32:56;;;;;;;9.05;5.78;;;;;;;-3.21;70.38;102026.03;7398186;19;20390;-67
2022/03/08 02:35:26;;;;;;;8.98;5.38;;;;;;;-3.24;70.50;102028.41;7397282;19;20035;-67
2022/03/08 02:37:59;;;;;;;10.00;6.03;;;;;;;-3.27;70.54;102031.69;7399556;19;20018;-67
2022/03/08 02:40:29;;;;;;;6.32;5.03;;;;;;;-3.29;70.66;102029.84;7399523;19;20473;-67
2022/03/08 02:42:59;;;;;;;7.57;5.75;;;;;;;-3.31;70.62;102036.56;7394823;19;20039;-67
2022/03/08 02:45:27;;;;;;;6.25;5.18;;;;;;;-3.34;70.54;102028.69;7397123;19;20393;-66
2022/03/08 02:47:56;;;;;;;8.95;5.50;;;;;;;-3.38;70.46;102035.34;7397388;19;20011;-66
2022/03/08 02:50:24;;;;;;;9.57;5.53;;;;;;;-3.42;70.74;102027.38;7398793;19;20381;-67
2022/03/08 02:52:57;;;;;;;11.52;5.72;;;;;;;-3.46;70.81;102034.91;7396798;19;20027;-66
2022/03/08 02:55:29;;;;;;;7.05;5.53;;;;;;;-3.50;70.97;102038.13;7399457;19;20011;-67
2022/03/08 02:57:59;;;;;;;7.88;5.45;;;;;;;-3.53;70.94;102037.06;7398689;19;20380;-66
2022/03/08 03:00:29;;;;;;;8.38;5.13;;;;;;;-3.56;71.09;102032.63;7398822;19;20045;-67
2022/03/08 03:02:58;;;;;;;9.25;5.68;;;;;;;-3.58;71.01;102034.22;7396548;19;20022;-66
2022/03/08 03:05:26;;;;;;;11.23;6.20;;;;;;;-3.61;71.28;102034.06;7398688;19;20018;-67
2022/03/08 03:07:54;;;;;;;9.93;5.45;;;;;;;-3.66;71.47;102036.34;7395888;19;20479;-66
2022/03/08 03:10:24;;;;;;;9.57;6.72;;;;;;;-3.70;71.38;102034.41;7398428;19;20039;-67
2022/03/08 03:12:57;;;;;;;8.98;5.78;;;;;;;-3.72;71.28;102036.00;7396548;19;20023;-68
2022/03/08 03:15:26;;;;;;;8.13;5.45;;;;;;;-3.74;71.55;102042.75;7396412;19;20479;-66
2022/03/08 03:17:55;;;;;;;9.15;5.80;;;;;;;-3.77;72.07;102042.53;7399233;19;20029;-66
2022/03/08 03:20:26;;;;;;;9.30;6.18;;;;;;;-3.81;71.81;102045.75;7399565;19;20015;-68
2022/03/08 03:22:54;;;;;;;10.73;5.88;;;;;;;-3.86;71.84;102047.16;7396587;19;20545;-66
2022/03/08 03:25:22;;;;;;;9.00;5.35;;;;;;;-3.89;71.83;102053.00;7395820;19;20014;-66
2022/03/08 03:27:50;;;;;;;9.00;5.88;;;;;;;-3.90;71.85;102055.44;7396356;19;20022;-67
2022/03/08 03:30:21;;;;;;;7.03;4.97;;;;;;;-3.92;71.80;102057.91;7397923;19;20033;-66
2022/03/08 03:32:49;;;;;;;9.00;5.60;;;;;;;-3.95;72.04;102062.88;7396999;19;20014;-67
2022/03/08 03:35:18;;;;;;;8.60;5.78;;;;;;;-3.98;72.28;102062.69;7397705;19;20108;-67
2022/03/08 03:37:46;;;;;;;10.35;5.65;;;;;;;-4.02;72.44;102058.19;7397692;19;20027;-67
2022/03/08 03:40:15;;;;;;;11.57;5.38;;;;;;;-4.05;72.42;102060.56;7397254;19;20027;-67
2022/03/08 03:42:44;;;;;;;10.43;5.82;;;;;;;-4.06;72.13;102056.25;7396604;19;20362;-66
2022/03/08 03:45:13;;;;;;;13.70;5.63;;;;;;;-4.09;72.46;102059.50;7397151;19;20387;-66
2022/03/08 03:47:44;;;;;;;9.52;6.18;;;;;;;-4.11;72.28;102067.13;7396245;19;20031;-66
2022/03/08 03:50:12;;;;;;;11.13;6.25;;;;;;;-4.13;72.42;102063.56;7397710;19;20048;-67
2022/03/08 03:52:41;;;;;;;9.80;6.22;;;;;;;-4.15;72.49;102070.25;7395373;19;20421;-66
2022/03/08 03:55:10;;;;;;;12.98;6.35;;;;;;;-4.19;72.52;102064.88;7395838;19;20019;-66
2022/03/08 03:57:38;;;;;;;9.13;6.35;;;;;;;-4.18;72.85;102077.78;7396895;19;20027;-66
2022/03/08 04:00:09;;;;;;;8.50;6.43;;;;;;;-4.18;72.46;102076.88;7396591;19;20486;-66
2022/03/08 04:02:37;;;;;;;10.95;6.80;;;;;;;-4.21;72.78;102075.03;7396376;19;20018;-67
2022/03/08 04:05:08;;;;;;;8.07;5.95;;;;;;;-4.22;72.86;102068.16;7396641;19;20014;-66
2022/03/08 04:07:37;;;;;;;8.40;6.00;;;;;;;-4.25;72.92;102075.63;7396193;19;20022;-67
2022/03/08 04:10:06;;;;;;;10.40;6.43;;;;;;;-4.26;72.79;102081.56;7396546;19;20031;-67
2022/03/08 04:12:34;;;;;;;11.20;6.95;;;;;;;-4.28;72.86;102075.47;7395503;19;20026;-66
2022/03/08 04:15:03;;;;;;;8.38;5.25;;;;;;;-4.30;73.12;102079.59;7394434;19;20488;-66
2022/03/08 04:17:31;;;;;;;10.70;6.72;;;;;;;-4.31;73.11;102072.69;7394931;19;20031;-66
2022/03/08 04:19:59;;;;;;;12.00;6.70;;;;;;;-4.32;73.18;102081.19;7396227;19;20027;-68
2022/03/08 04:22:30;;;;;;;8.40;6.10;;;;;;;-4.32;73.08;102078.63;7394854;19;20031;-66
2022/03/08 04:24:58;;;;;;;10.60;6.28;;;;;;;-4.32;73.26;102070.94;7395303;19;20014;-66
2022/03/08 04:27:26;;;;;;;9.93;6.80;;;;;;;-4.31;73.29;102073.59;7395290;19;20019;-66
2022/03/08 04:29:54;;;;;;;10.90;6.43;;;;;;;-4.33;73.39;102056.38;7396202;19;20035;-66
2022/03/08 04:32:22;;;;;;;15.35;6.22;;;;;;;-4.31;73.23;102055.66;7395098;19;20019;-66
2022/03/08 04:34:50;;;;;;;10.23;6.90;;;;;;;-4.30;73.28;102053.97;7395603;19;20032;-66
2022/03/08 04:37:18;;;;;;;9.75;6.70;;;;;;;-4.28;73.09;102052.41;7395562;19;20095;-67
2022/03/08 04:39:49;;;;;;;11.35;6.50;;;;;;;-4.28;73.47;102052.41;7393740;19;20433;-66
2022/03/08 04:42:17;;;;;;;9.25;6.70;;;;;;;-4.27;73.37;102051.63;7395067;19;20022;-67
2022/03/08 04:44:45;;;;;;;13.40;6.93;;;;;;;-4.29;73.28;102048.94;7395432;19;20031;-71
2022/03/08 04:47:13;;;;;;;11.40;6.55;;;;;;;-4.27;73.30;102056.75;7394689;19;20022;-68
2022/03/08 04:49:42;;;;;;;12.32;6.93;;;;;;;-4.26;73.36;102059.38;7393665;19;20014;-67
2022/03/08 04:52:10;;;;;;;9.82;6.35;;;;;;;-4.26;73.22;102053.38;7394825;19;20015;-66
2022/03/08 04:54:38;;;;;;;11.15;6.18;;;;;;;-4.27;73.45;102052.50;7395367;19;20031;-66
2022/03/08 04:57:09;;;;;;;12.65;6.43;;;;;;;-4.26;73.58;102055.91;7395283;19;20022;-68
2022/03/08 04:59:37;;;;;;;13.00;6.60;;;;;;;-4.26;73.42;102056.81;7393752;19;20023;-66
2022/03/08 05:02:12;;;;;;;11.05;6.38;;;;;;;-4.28;73.47;102057.53;7394497;19;20023;-65
2022/03/08 05:04:40;;;;;;;9.98;6.20;;;;;;;-4.30;73.40;102061.66;7393233;19;20022;-66
2022/03/08 05:07:09;;;;;;;10.35;6.55;;;;;;;-4.30;73.70;102053.97;7401586;19;20437;-66
2022/03/08 05:09:37;;;;;;;10.68;6.75;;;;;;;-4.30;73.30;102059.09;7399512;19;20019;-66
2022/03/08 05:12:06;;;;;;;11.55;6.72;;;;;;;-4.31;73.50;102058.22;7401538;19;20035;-66
2022/03/08 05:14:36;;;;;;;168.30;79.60;;;;;;;-4.30;73.53;102071.91;7399940;19;20006;-66
2022/03/08 05:17:05;;;;;;;28.33;15.70;;;;;;;-4.29;73.79;102074.56;7399957;19;20015;-65
2022/03/08 05:19:33;;;;;;;14.30;8.63;;;;;;;-4.28;74.05;102081.47;7401434;19;20511;-66
2022/03/08 05:22:01;;;;;;;13.10;8.30;;;;;;;-4.28;73.82;102078.03;7398419;19;20022;-66
2022/03/08 05:24:30;;;;;;;15.15;9.98;;;;;;;-4.26;73.79;102084.13;7398640;19;20483;-66
2022/03/08 05:26:58;;;;;;;18.13;9.48;;;;;;;-4.26;74.10;102091.81;7401511;19;20037;-66
2022/03/08 05:29:27;;;;;;;17.90;9.52;;;;;;;-4.26;74.04;102082.47;7401529;19;20022;-66
2022/03/08 05:31:58;;;;;;;22.70;10.63;;;;;;;-4.25;73.93;102093.56;7398211;19;20578;-66
2022/03/08 05:34:26;;;;;;;30.20;13.32;;;;;;;-4.27;74.11;102085.81;7401326;19;20032;-66
2022/03/08 05:37:01;;;;;;;24.17;11.32;;;;;;;-4.27;74.05;102085.81;7400988;19;20036;-66
2022/03/08 05:39:29;;;;;;;20.55;10.25;;;;;;;-4.26;74.03;102087.59;7401493;19;20022;-67
2022/03/08 05:41:57;;;;;;;14.20;8.50;;;;;;;-4.26;73.94;102091.81;7398363;19;20047;-65
2022/03/08 05:44:25;;;;;;;23.10;11.60;;;;;;;-4.26;74.09;102092.72;7401238;19;20022;-66
2022/03/08 05:46:53;;;;;;;29.65;13.88;;;;;;;-4.26;74.06;102091.81;7400723;19;20035;-65
2022/03/08 05:49:25;;;;;;;23.10;11.48;;;;;;;-4.26;74.13;102097.84;7397973;19;20014;-64
2022/03/08 05:51:53;;;;;;;42.83;18.73;;;;;;;-4.23;74.30;102106.47;7400042;19;20014;-66
2022/03/08 05:54:22;;;;;;;17.00;9.73;;;;;;;-4.22;74.14;102103.13;7400709;19;20018;-65
2022/03/08 05:56:50;;;;;;;14.40;10.05;;;;;;;-4.21;74.10;102099.78;7399398;19;20019;-65
2022/03/08 05:59:18;;;;;;;15.50;9.05;;;;;;;-4.20;74.31;102099.88;7396469;19;20479;-66
2022/03/08 06:01:46;;;;;;;27.55;13.82;;;;;;;-4.18;74.09;102105.97;7399488;19;20336;-66
2022/03/08 06:04:14;;;;;;;40.97;17.20;;;;;;;-4.16;74.27;102109.50;7399597;19;20014;-65
2022/03/08 06:07:07;;;;;;;39.25;16.98;;;;;;;-4.15;74.14;102101.03;7398070;19;20015;-67
2022/03/08 06:09:35;;;;;;;32.88;17.02;;;;;;;-4.14;74.37;102113.06;7399958;19;20031;-67
2022/03/08 06:12:03;;;;;;;16.33;9.40;;;;;;;-4.13;74.18;102112.25;7399797;19;20022;-68
2022/03/08 06:14:38;;;;;;;13.27;9.38;;;;;;;-4.12;74.16;102113.13;7397986;19;20011;-66
2022/03/08 06:17:13;;;;;;;14.43;8.88;;;;;;;-4.11;74.32;102115.81;7399015;19;20027;-66
2022/03/08 06:19:41;;;;;;;20.40;9.73;;;;;;;-4.08;74.54;102120.25;7395652;19;20349;-66
2022/03/08 06:22:12;;;;;;;14.60;9.88;;;;;;;-4.04;74.37;102119.63;7398127;19;20026;-67
2022/03/08 06:24:40;;;;;;;18.40;10.73;;;;;;;-4.00;74.67;102121.56;7398314;19;20471;-67
2022/03/08 06:27:08;;;;;;;19.63;10.77;;;;;;;-4.03;74.59;102105.13;7397172;19;20031;-67
2022/03/08 06:29:37;;;;;;;17.13;9.90;;;;;;;-3.94;74.69;102121.06;7396872;19;20033;-66
2022/03/08 06:32:06;;;;;;;15.68;11.13;;;;;;;-3.89;74.72;102124.78;7398978;19;20032;-66
2022/03/08 06:34:34;;;;;;;21.08;11.30;;;;;;;-3.86;74.90;102129.22;7399279;19;20019;-66
2022/03/08 06:37:02;;;;;;;19.73;11.50;;;;;;;-3.84;74.64;102118.25;7396806;19;20018;-66
2022/03/08 06:39:33;;;;;;;19.48;11.00;;;;;;;-3.78;74.76;102125.41;7399036;19;20031;-66
2022/03/08 06:42:01;;;;;;;19.30;12.60;;;;;;;-3.76;74.77;102117.00;7398813;19;20026;-66
2022/03/08 06:44:31;;;;;;;25.30;12.85;;;;;;;-3.70;74.67;102125.84;7396198;19;20019;-67
2022/03/08 06:46:59;;;;;;;32.25;15.52;;;;;;;-3.65;74.71;102124.44;7397118;19;20070;-67
2022/03/08 06:49:28;;;;;;;40.78;19.35;;;;;;;-3.63;74.78;102110.94;7396831;19;20031;-66
2022/03/08 06:51:56;;;;;;;38.70;17.58;;;;;;;-3.58;74.72;102111.19;7397122;19;20027;-66
2022/03/08 06:54:24;;;;;;;25.80;14.18;;;;;;;-3.55;74.73;102111.38;7399116;19;20018;-67
2022/03/08 06:56:55;;;;;;;26.40;13.30;;;;;;;-3.52;74.63;102106.41;7399156;19;20019;-66
2022/03/08 06:59:23;;;;;;;25.23;12.27;;;;;;;-3.47;74.82;102111.81;7397138;19;20023;-66
2022/03/08 07:01:51;;;;;;;23.27;12.02;;;;;;;-3.42;74.71;102114.63;7397930;19;20023;-66
2022/03/08 07:04:20;;;;;;;24.27;12.10;;;;;;;-3.35;74.45;102114.19;7398271;19;20390;-66
2022/03/08 07:06:48;;;;;;;19.98;12.10;;;;;;;-3.30;74.63;102115.34;7395949;19;20015;-66
2022/03/08 07:09:16;;;;;;;18.48;10.55;;;;;;;-3.26;74.60;102119.88;7395915;19;20026;-66
2022/03/08 07:11:44;;;;;;;18.67;12.52;;;;;;;-3.21;74.74;102117.53;7398103;19;20014;-66
2022/03/08 07:14:15;;;;;;;20.13;11.45;;;;;;;-3.15;74.55;102108.50;7396691;19;20056;-67
2022/03/08 07:16:44;;;;;;;18.50;12.15;;;;;;;-3.08;74.68;102113.97;7398656;19;20041;-67
2022/03/08 07:19:13;;;;;;;27.38;14.13;;;;;;;-3.04;74.63;102109.09;7398094;19;20381;-66
2022/03/08 07:21:41;;;;;;;26.42;14.48;;;;;;;-2.95;74.81;102116.44;7397038;19;20023;-66
2022/03/08 07:24:09;;;;;;;21.58;13.60;;;;;;;-2.89;74.78;102111.66;7395014;19;20022;-67
2022/03/08 07:26:37;;;;;;;27.70;18.75;;;;;;;-2.81;74.73;102112.94;7396203;19;20027;-66
2022/03/08 07:29:06;;;;;;;38.90;22.27;;;;;;;-2.76;74.84;102105.50;7394111;19;20027;-66
2022/03/08 07:31:36;;;;;;;25.60;16.67;;;;;;;-2.67;75.13;102105.97;7395423;19;20035;-66
2022/03/08 07:34:05;;;;;;;21.17;15.18;;;;;;;-2.59;75.18;102111.56;7397458;19;20018;-67
2022/03/08 07:36:33;;;;;;;25.85;16.92;;;;;;;-2.50;75.03;102114.63;7397098;19;20031;-66
2022/03/08 07:39:01;;;;;;;26.02;17.73;;;;;;;-2.42;75.11;102114.16;7395016;19;20026;-66
2022/03/08 07:41:30;;;;;;;27.05;18.55;;;;;;;-2.33;75.19;102104.34;7397773;19;20079;-65
2022/03/08 07:43:58;;;;;;;23.92;16.58;;;;;;;-2.24;75.61;102107.41;7395326;19;20018;-66
2022/03/08 07:46:26;;;;;;;24.50;16.77;;;;;;;-2.14;75.68;102109.66;7394798;19;20019;-67
2022/03/08 07:48:57;;;;;;;26.35;17.45;;;;;;;-2.03;75.58;102104.19;7395556;19;20036;-66
2022/03/08 07:51:25;;;;;;;26.95;17.58;;;;;;;-1.93;75.51;102101.28;7397544;19;20023;-67
2022/03/08 07:53:53;;;;;;;25.13;17.35;;;;;;;-1.84;75.20;102106.91;7395877;19;20349;-66
2022/03/08 07:56:21;;;;;;;21.45;15.45;;;;;;;-1.75;75.27;102098.75;7396843;19;20039;-66
2022/03/08 07:58:50;;;;;;;19.80;15.10;;;;;;;-1.64;75.30;102107.03;7394964;19;20022;-66
2022/03/08 08:01:18;;;;;;;21.75;13.85;;;;;;;-1.55;75.40;102102.34;7396721;19;20032;-66
2022/03/08 08:03:47;;;;;;;21.10;14.90;;;;;;;-1.45;75.25;102100.19;7394862;19;20035;-68
2022/03/08 08:06:17;;;;;;;19.20;13.48;;;;;;;-1.37;74.98;102107.50;7394855;19;20015;-66
2022/03/08 08:08:45;;;;;;;17.23;13.23;;;;;;;-1.28;75.34;102112.22;7394703;19;20022;-67
2022/03/08 08:11:13;;;;;;;18.75;12.10;;;;;;;-1.20;75.33;102103.19;7396500;19;20022;-67
2022/03/08 08:13:42;;;;;;;16.35;10.77;;;;;;;-1.10;75.43;102111.34;7393965;19;20028;-67
2022/03/08 08:16:10;;;;;;;18.30;12.57;;;;;;;-1.01;75.44;102112.69;7394474;19;20031;-67
2022/03/08 08:18:38;;;;;;;19.02;14.27;;;;;;;-0.90;75.34;102114.88;7395982;19;20031;-67
2022/03/08 08:21:06;;;;;;;19.13;12.82;;;;;;;-0.83;75.29;102117.81;7393825;19;20027;-67
2022/03/08 08:23:37;;;;;;;19.20;12.35;;;;;;;-0.72;75.26;102122.56;7393838;19;20082;-67
2022/03/08 08:26:05;;;;;;;25.10;16.17;;;;;;;-0.63;75.32;102123.03;7394119;19;20023;-66
2022/03/08 08:28:34;;;;;;;21.13;13.80;;;;;;;-0.54;74.96;102117.41;7394266;19;20014;-67
2022/03/08 08:31:02;;;;;;;19.25;13.55;;;;;;;-0.46;75.07;102117.75;7395582;19;20028;-67
2022/03/08 08:33:30;;;;;;;17.55;12.50;;;;;;;-0.37;74.87;102110.44;7393863;19;20035;-66
2022/03/08 08:35:58;;;;;;;17.52;11.60;;;;;;;-0.28;74.84;102107.38;7395226;19;20085;-67
2022/03/08 08:38:27;;;;;;;16.35;10.27;;;;;;;-0.19;74.97;102111.25;7395321;19;20039;-67
2022/03/08 08:40:57;;;;;;;14.80;11.15;;;;;;;-0.08;75.10;102109.13;7390628;19;20385;-67
2022/03/08 08:43:25;;;;;;;15.48;10.13;;;;;;;0.01;75.04;102106.09;7394747;19;20034;-66
2022/03/08 08:45:54;;;;;;;16.55;10.02;;;;;;;0.13;74.86;102109.19;7395156;19;20035;-66
2022/03/08 08:48:23;;;;;;;16.77;10.18;;;;;;;0.26;74.45;102104.56;7394716;19;20018;-66
2022/03/08 08:50:52;;;;;;;16.10;9.05;;;;;;;0.37;74.20;102105.91;7395195;19;20021;-66
2022/03/08 08:53:22;;;;;;;13.75;9.10;;;;;;;0.45;74.30;102101.94;7393651;19;20035;-67
2022/03/08 08:55:50;;;;;;;10.40;8.23;;;;;;;0.55;74.12;102104.91;7395057;19;20019;-66
2022/03/08 08:58:21;;;;;;;17.23;9.05;;;;;;;0.65;73.91;102104.47;7393109;19;20022;-67
2022/03/08 09:00:49;;;;;;;11.73;8.32;;;;;;;0.72;73.76;102096.16;7393719;19;20417;-67
2022/03/08 09:03:17;;;;;;;9.85;6.75;;;;;;;0.80;73.59;102089.56;7393356;19;20018;-66
2022/03/08 09:05:46;;;;;;;11.25;6.57;;;;;;;0.88;73.19;102095.03;7394570;19;20047;-67
2022/03/08 09:08:22;;;;;;;9.80;5.13;;;;;;;0.96;73.25;102098.84;7392765;19;20018;-67
2022/03/08 09:10:50;;;;;;;8.55;5.50;;;;;;;1.05;73.04;102103.47;7394167;19;20475;-67
2022/03/08 09:13:21;;;;;;;5.65;4.50;;;;;;;1.13;72.86;102103.78;7392799;19;20475;-67
2022/03/08 09:15:49;;;;;;;8.73;5.30;;;;;;;1.21;72.39;102098.91;7392685;19;20479;-67
2022/03/08 09:18:17;;;;;;;11.70;6.10;;;;;;;1.27;72.27;102101.72;7394176;19;20031;-66
2022/03/08 09:20:46;;;;;;;13.27;7.00;;;;;;;1.35;71.96;102104.59;7392569;19;20029;-67
2022/03/08 09:23:15;;;;;;;9.70;5.38;;;;;;;1.43;71.64;102101.47;7391990;19;20025;-67
2022/03/08 09:25:43;;;;;;;11.07;5.15;;;;;;;1.53;71.40;102104.41;7393915;19;20047;-67
2022/03/08 09:28:11;;;;;;;10.65;5.55;;;;;;;1.61;71.34;102105.59;7392872;19;20022;-67
2022/03/08 09:30:42;;;;;;;11.40;4.82;;;;;;;1.70;70.92;102107.63;7391594;19;20504;-66
2022/03/08 09:33:11;;;;;;;8.52;4.90;;;;;;;1.77;70.60;102105.31;7392958;19;20375;-67
2022/03/08 09:35:40;;;;;;;6.18;3.53;;;;;;;1.86;70.38;102099.59;7391743;19;20019;-67
2022/03/08 09:38:11;;;;;;;18.55;9.45;;;;;;;1.94;70.15;102095.56;7393574;19;20353;-67
2022/03/08 09:40:40;;;;;;;9.82;4.72;;;;;;;2.04;69.81;102099.34;7392067;19;20499;-67
2022/03/08 09:43:08;;;;;;;12.30;4.32;;;;;;;2.11;69.57;102096.16;7392317;19;20090;-67
2022/03/08 09:45:37;;;;;;;6.60;4.00;;;;;;;2.23;69.10;102094.84;7394196;19;20026;-67
2022/03/08 09:48:08;;;;;;;6.65;3.63;;;;;;;2.31;68.82;102095.09;7393821;19;20035;-67
2022/03/08 09:50:37;;;;;;;6.40;3.28;;;;;;;2.39;68.47;102094.53;7392321;19;20015;-67
2022/03/08 09:53:06;;;;;;;5.70;3.92;;;;;;;2.47;68.49;102099.97;7398289;19;20019;-67
2022/03/08 09:55:34;;;;;;;9.63;5.60;;;;;;;2.55;67.78;102093.34;7400795;19;20015;-66
2022/03/08 09:58:04;;;;;;;6.93;4.57;;;;;;;2.63;67.69;102097.88;7400636;19;20018;-66
2022/03/08 10:00:32;;;;;;;4.32;3.17;;;;;;;2.71;67.54;102099.88;7400440;19;20032;-67
2022/03/08 10:03:02;;;;;;;5.80;3.33;;;;;;;2.77;67.02;102101.81;7399089;19;20023;-67
2022/03/08 10:05:39;;;;;;;6.53;3.28;;;;;;;2.84;66.68;102101.16;7397672;19;20034;-67
2022/03/08 10:08:11;;;;;;;7.40;3.50;;;;;;;2.89;66.48;102099.59;7400659;19;20037;-66
2022/03/08 10:10:55;;;;;;;7.47;3.92;;;;;;;2.97;65.47;102101.53;7398341;19;20103;-68
2022/03/08 10:13:26;;;;;;;5.82;3.67;;;;;;;3.03;66.19;102097.44;7398150;19;20086;-66
2022/03/08 10:16:08;;;;;;;5.57;3.47;;;;;;;3.14;65.32;102089.97;7397371;19;20015;-65
2022/03/08 10:18:38;;;;;;;5.93;3.58;;;;;;;3.25;65.04;102087.72;7399551;19;20476;-66
2022/03/08 10:21:28;;;;;;;6.30;3.30;;;;;;;3.36;64.11;102075.06;7399587;19;20023;-66
2022/03/08 10:23:57;;;;;;;5.82;2.80;;;;;;;3.46;64.50;102077.09;7397057;19;20053;-66
2022/03/08 10:26:25;;;;;;;3.67;3.10;;;;;;;3.53;64.26;102072.97;7400033;19;20040;-66
2022/03/08 10:28:56;;;;;;;6.45;4.10;;;;;;;3.59;63.38;102073.16;7397247;19;20035;-68
2022/03/08 10:31:24;;;;;;;5.15;3.25;;;;;;;3.67;63.50;102065.56;7396648;19;20479;-66
2022/03/08 10:33:53;;;;;;;7.18;2.90;;;;;;;3.74;63.07;102073.56;7396812;19;20023;-67
2022/03/08 10:36:27;;;;;;;5.55;3.00;;;;;;;3.82;62.15;102071.19;7399552;19;20015;-67
2022/03/08 10:39:19;;;;;;;5.85;3.53;;;;;;;3.90;62.00;102068.78;7399775;19;20022;-67
2022/03/08 10:41:52;;;;;;;6.00;3.35;;;;;;;3.96;62.49;102065.50;7397815;19;20018;-67
2022/03/08 10:44:34;;;;;;;4.32;2.97;;;;;;;4.04;61.13;102058.78;7399483;19;20130;-66
2022/03/08 10:47:09;;;;;;;4.10;2.70;;;;;;;4.10;61.55;102079.72;7398695;19;20035;-66
2022/03/08 10:49:51;;;;;;;3.63;2.78;;;;;;;4.16;60.77;102071.22;7398086;19;20018;-66
2022/03/08 10:52:28;;;;;;;4.53;2.75;;;;;;;4.21;60.82;102075.69;7398625;19;20057;-66
2022/03/08 10:54:56;;;;;;;5.55;3.10;;;;;;;4.29;60.69;102075.00;7396785;19;20019;-67
2022/03/08 10:57:24;;;;;;;5.78;3.30;;;;;;;4.34;60.45;102060.41;7398648;19;20022;-67
2022/03/08 10:59:56;;;;;;;5.00;3.28;;;;;;;4.39;60.49;102062.28;7398785;19;20031;-67
2022/03/08 11:02:26;;;;;;;3.45;2.42;;;;;;;4.43;60.18;102049.38;7395875;19;20015;-67
2022/03/08 11:05:10;;;;;;;4.95;3.28;;;;;;;4.53;59.44;102059.16;7396009;19;20412;-64
2022/03/08 11:07:41;;;;;;;4.43;3.38;;;;;;;4.62;59.79;102055.91;7398774;19;20021;-66
2022/03/08 11:10:11;;;;;;;7.13;3.58;;;;;;;4.72;59.58;102045.72;7397209;19;20471;-65
2022/03/08 11:12:40;;;;;;;4.90;3.53;;;;;;;4.82;59.49;102048.56;7396880;19;20539;-66
2022/03/08 11:15:11;;;;;;;4.45;2.72;;;;;;;4.91;58.91;102051.38;7396431;19;20048;-70
2022/03/08 11:17:40;;;;;;;3.78;2.35;;;;;;;5.02;58.02;102046.41;7397760;19;20026;-68
2022/03/08 11:20:11;;;;;;;5.40;2.15;;;;;;;5.15;57.92;102050.16;7395742;19;20035;-68
2022/03/08 11:22:43;;;;;;;4.45;2.50;;;;;;;5.18;57.35;102040.69;7395174;19;20018;-67
2022/03/08 11:25:14;;;;;;;4.15;2.33;;;;;;;5.31;56.92;102049.63;7395986;19;20031;-70
2022/03/08 11:27:42;;;;;;;5.13;3.03;;;;;;;5.38;56.70;102048.94;7397547;19;20010;-63
2022/03/08 11:30:14;;;;;;;5.10;2.42;;;;;;;5.45;56.39;102049.06;7396110;19;20031;-63
2022/03/08 11:32:49;;;;;;;3.80;1.92;;;;;;;5.51;55.54;102039.63;7396098;19;20018;-64